Time;durP1;ratioP1;P1;durP2;ratioP2;P2;SDS_P1;SDS_P2;PMS_P1;PMS_P2;Temp;Humidity;BMP_temperature;BMP_pressure;BME280_temperature;BME280_humidity;BME280_pressure;Samples;Min_cycle;Max_cycle;Signal;HPM_P1;HPM_P2
2023/08/03 00:01:46;;;;;;;6.43;2.10;;;;;;;;;;5034154;28;20256;-28
2023/08/03 00:04:11;;;;;;;5.00;2.30;;;;;;;;;;5034577;28;20280;-28
2023/08/03 00:06:36;;;;;;;5.30;2.10;;;;;;;;;;5034045;28;20276;-28
2023/08/03 00:09:01;;;;;;;4.85;1.90;;;;;;;;;;5034501;28;20335;-28
2023/08/03 00:11:27;;;;;;;3.38;1.85;;;;;;;;;;5033956;28;20024;-28
2023/08/03 00:13:52;;;;;;;4.57;1.80;;;;;;;;;;5033940;28;20013;-27
2023/08/03 00:16:17;;;;;;;2.88;1.90;;;;;;;;;;5033915;28;20097;-27
2023/08/03 00:18:42;;;;;;;6.95;2.30;;;;;;;;;;5034109;28;20017;-28
2023/08/03 00:21:08;;;;;;;6.63;2.00;;;;;;;;;;5033902;28;20025;-27
2023/08/03 00:23:33;;;;;;;10.17;2.50;;;;;;;;;;5033764;28;20268;-28
2023/08/03 00:25:58;;;;;;;9.52;2.20;;;;;;;;;;5033679;28;20773;-27
2023/08/03 00:28:23;;;;;;;7.20;2.42;;;;;;;;;;5033779;28;20464;-27
2023/08/03 00:30:48;;;;;;;6.90;2.25;;;;;;;;;;5033704;28;20080;-27
2023/08/03 00:33:14;;;;;;;12.20;2.60;;;;;;;;;;5033671;28;20021;-27
2023/08/03 00:35:39;;;;;;;15.73;2.33;;;;;;;;;;5033665;28;20761;-27
2023/08/03 00:38:04;;;;;;;8.47;2.20;;;;;;;;;;5033168;28;20263;-28
2023/08/03 00:40:29;;;;;;;9.60;2.10;;;;;;;;;;5033497;28;20257;-27
2023/08/03 00:42:55;;;;;;;11.32;2.03;;;;;;;;;;5034080;28;20295;-27
2023/08/03 00:45:20;;;;;;;7.75;2.25;;;;;;;;;;5033784;28;20038;-28
2023/08/03 00:47:46;;;;;;;7.80;2.15;;;;;;;;;;5033476;28;20093;-27
2023/08/03 00:50:11;;;;;;;12.03;2.37;;;;;;;;;;5033991;28;20013;-28
2023/08/03 00:52:37;;;;;;;9.23;2.30;;;;;;;;;;5033984;28;20385;-27
2023/08/03 00:55:02;;;;;;;7.72;2.00;;;;;;;;;;5033383;28;20427;-28
2023/08/03 00:57:28;;;;;;;8.73;2.13;;;;;;;;;;5033668;28;20082;-27
2023/08/03 00:59:54;;;;;;;8.85;2.60;;;;;;;;;;5015629;28;20105;-29
2023/08/03 01:02:19;;;;;;;15.98;2.97;;;;;;;;;;5033334;28;20500;-28
2023/08/03 01:04:44;;;;;;;10.13;2.37;;;;;;;;;;5033236;28;20025;-27
2023/08/03 01:07:09;;;;;;;12.32;2.13;;;;;;;;;;5033360;28;20252;-28
2023/08/03 01:09:34;;;;;;;11.73;2.10;;;;;;;;;;5033062;28;20018;-27
2023/08/03 01:12:00;;;;;;;11.95;2.25;;;;;;;;;;5033444;28;20292;-27
2023/08/03 01:14:25;;;;;;;7.75;2.13;;;;;;;;;;5033782;28;20376;-26
2023/08/03 01:16:51;;;;;;;13.07;2.60;;;;;;;;;;5033207;28;20029;-26
2023/08/03 01:19:16;;;;;;;17.13;2.38;;;;;;;;;;5033678;28;20048;-26
2023/08/03 01:21:42;;;;;;;15.18;2.38;;;;;;;;;;5033716;28;20484;-26
2023/08/03 01:24:07;;;;;;;10.10;2.17;;;;;;;;;;5033127;28;20022;-26
2023/08/03 01:26:32;;;;;;;13.20;2.58;;;;;;;;;;5033364;28;20022;-26
2023/08/03 01:28:58;;;;;;;12.30;2.10;;;;;;;;;;5033413;28;20025;-26
2023/08/03 01:31:23;;;;;;;7.30;1.80;;;;;;;;;;5033339;28;20244;-26
2023/08/03 01:33:48;;;;;;;9.68;1.80;;;;;;;;;;5033625;28;20017;-26
2023/08/03 01:36:13;;;;;;;11.27;2.47;;;;;;;;;;5033287;28;20017;-26
2023/08/03 01:38:39;;;;;;;11.95;2.15;;;;;;;;;;5033018;28;20603;-26
2023/08/03 01:41:05;;;;;;;9.00;1.77;;;;;;;;;;5033021;28;20218;-26
2023/08/03 01:43:30;;;;;;;12.57;2.03;;;;;;;;;;5033118;28;20018;-27
2023/08/03 01:45:55;;;;;;;9.38;2.00;;;;;;;;;;5032787;28;20072;-26
2023/08/03 01:48:20;;;;;;;9.17;1.93;;;;;;;;;;5033444;28;20041;-26
2023/08/03 01:50:46;;;;;;;11.95;2.15;;;;;;;;;;5035951;28;20260;-26
2023/08/03 01:53:13;;;;;;;10.00;2.23;;;;;;;;;;5036583;28;20017;-27
2023/08/03 01:55:38;;;;;;;7.43;2.03;;;;;;;;;;5018767;28;20371;-27
2023/08/03 01:58:03;;;;;;;10.53;2.10;;;;;;;;;;5036483;28;20096;-27
2023/08/03 02:00:28;;;;;;;11.07;2.40;;;;;;;;;;5036412;28;20283;-27
2023/08/03 02:02:54;;;;;;;14.00;2.35;;;;;;;;;;5036369;28;20013;-27
2023/08/03 02:05:19;;;;;;;12.50;2.10;;;;;;;;;;5036342;28;20021;-27
2023/08/03 02:07:46;;;;;;;9.93;2.28;;;;;;;;;;5036325;28;20306;-27
2023/08/03 02:10:11;;;;;;;13.55;2.53;;;;;;;;;;5036115;28;20014;-27
2023/08/03 02:12:37;;;;;;;11.38;2.55;;;;;;;;;;5036502;28;20375;-27
2023/08/03 02:15:06;;;;;;;11.60;2.63;;;;;;;;;;5036403;28;20025;-26
2023/08/03 02:17:31;;;;;;;13.88;2.63;;;;;;;;;;5036418;28;20423;-27
2023/08/03 02:19:56;;;;;;;15.48;2.90;;;;;;;;;;5036122;28;20037;-28
2023/08/03 02:22:22;;;;;;;15.77;2.50;;;;;;;;;;5036591;28;20094;-26
2023/08/03 02:24:47;;;;;;;16.35;3.28;;;;;;;;;;5035911;28;20116;-27
2023/08/03 02:27:12;;;;;;;12.37;3.40;;;;;;;;;;5035998;28;20018;-27
2023/08/03 02:29:37;;;;;;;12.13;2.93;;;;;;;;;;5036409;28;20248;-27
2023/08/03 02:32:03;;;;;;;14.10;3.43;;;;;;;;;;5035882;28;20314;-27
2023/08/03 02:34:28;;;;;;;10.23;2.92;;;;;;;;;;5036502;28;20330;-27
2023/08/03 02:36:53;;;;;;;18.37;3.53;;;;;;;;;;5036298;28;20025;-26
2023/08/03 02:39:18;;;;;;;13.47;3.47;;;;;;;;;;5035707;28;20436;-27
2023/08/03 02:41:43;;;;;;;11.80;3.73;;;;;;;;;;5035701;28;20028;-26
2023/08/03 02:44:08;;;;;;;11.83;3.27;;;;;;;;;;5035906;28;20296;-27
2023/08/03 02:46:34;;;;;;;16.13;3.92;;;;;;;;;;5035615;28;20040;-28
2023/08/03 02:49:00;;;;;;;11.77;3.47;;;;;;;;;;5035541;28;20043;-27
2023/08/03 02:51:25;;;;;;;18.33;4.05;;;;;;;;;;5035713;28;20808;-28
2023/08/03 02:53:50;;;;;;;12.07;3.33;;;;;;;;;;5035465;28;20096;-28
2023/08/03 02:56:15;;;;;;;16.97;3.43;;;;;;;;;;5035388;28;20017;-28
2023/08/03 02:58:41;;;;;;;13.27;3.57;;;;;;;;;;5035886;28;20248;-28
2023/08/03 03:01:06;;;;;;;12.93;3.40;;;;;;;;;;5035206;28;20088;-28
2023/08/03 03:03:31;;;;;;;11.45;3.45;;;;;;;;;;5036342;28;20252;-28
2023/08/03 03:05:56;;;;;;;14.97;3.63;;;;;;;;;;5035219;28;20025;-28
2023/08/03 03:08:21;;;;;;;9.23;3.50;;;;;;;;;;5035727;28;20274;-26
2023/08/03 03:10:47;;;;;;;10.40;3.92;;;;;;;;;;5035056;28;20606;-26
2023/08/03 03:13:12;;;;;;;14.68;4.07;;;;;;;;;;5035137;28;20024;-27
2023/08/03 03:15:37;;;;;;;17.90;3.33;;;;;;;;;;5035592;28;20029;-27
2023/08/03 03:18:02;;;;;;;20.80;3.72;;;;;;;;;;5035492;28;20267;-27
2023/08/03 03:20:27;;;;;;;15.90;3.67;;;;;;;;;;5034957;28;20034;-27
2023/08/03 03:22:53;;;;;;;14.87;3.30;;;;;;;;;;5034897;28;20021;-27
2023/08/03 03:25:18;;;;;;;16.57;3.70;;;;;;;;;;5034819;28;20689;-27
2023/08/03 03:27:43;;;;;;;18.77;3.67;;;;;;;;;;5034824;28;20248;-27
2023/08/03 03:30:08;;;;;;;12.93;4.07;;;;;;;;;;5035332;28;20017;-28
2023/08/03 03:32:34;;;;;;;15.00;3.58;;;;;;;;;;5034909;28;20584;-27
2023/08/03 03:34:59;;;;;;;17.40;3.83;;;;;;;;;;5034637;28;20025;-27
2023/08/03 03:37:24;;;;;;;17.00;3.63;;;;;;;;;;5035143;28;20311;-27
2023/08/03 03:39:49;;;;;;;17.07;3.53;;;;;;;;;;5035083;28;20287;-27
2023/08/03 03:42:14;;;;;;;11.47;3.47;;;;;;;;;;5034541;28;20029;-27
2023/08/03 03:44:39;;;;;;;10.27;3.70;;;;;;;;;;5034250;28;20362;-27
2023/08/03 03:47:05;;;;;;;12.27;2.87;;;;;;;;;;5034463;28;20596;-27
2023/08/03 03:49:30;;;;;;;8.60;3.08;;;;;;;;;;5034852;28;20290;-27
2023/08/03 03:51:55;;;;;;;15.07;3.20;;;;;;;;;;5034393;28;20427;-27
2023/08/03 03:54:20;;;;;;;16.05;3.30;;;;;;;;;;5034820;28;20252;-27
2023/08/03 03:56:45;;;;;;;10.60;3.17;;;;;;;;;;5034238;28;20022;-27
2023/08/03 03:59:11;;;;;;;12.53;3.30;;;;;;;;;;5034745;28;20260;-27
2023/08/03 04:01:36;;;;;;;9.40;3.30;;;;;;;;;;5034104;28;20272;-27
2023/08/03 04:04:01;;;;;;;9.82;3.42;;;;;;;;;;5034525;28;20325;-27
2023/08/03 04:06:26;;;;;;;9.27;3.03;;;;;;;;;;5034362;28;20028;-27
2023/08/03 04:08:51;;;;;;;11.20;3.37;;;;;;;;;;5034560;28;20024;-27
2023/08/03 04:11:17;;;;;;;10.53;3.60;;;;;;;;;;5034216;28;20264;-27
2023/08/03 04:13:42;;;;;;;12.75;3.22;;;;;;;;;;5033661;28;20056;-27
2023/08/03 04:16:07;;;;;;;8.17;3.47;;;;;;;;;;5033923;28;20476;-27
2023/08/03 04:18:32;;;;;;;13.03;3.47;;;;;;;;;;5034410;28;20253;-27
2023/08/03 04:20:57;;;;;;;12.27;3.53;;;;;;;;;;5033799;28;20295;-27
2023/08/03 04:23:23;;;;;;;9.73;3.50;;;;;;;;;;5034102;28;20084;-27
2023/08/03 04:25:48;;;;;;;11.87;3.73;;;;;;;;;;5033705;28;20586;-27
2023/08/03 04:28:13;;;;;;;9.37;3.63;;;;;;;;;;5033745;28;20327;-27
2023/08/03 04:30:38;;;;;;;9.87;3.60;;;;;;;;;;5033729;28;20252;-27
2023/08/03 04:33:03;;;;;;;12.87;3.30;;;;;;;;;;5015982;28;20595;-27
2023/08/03 04:35:28;;;;;;;9.93;3.30;;;;;;;;;;5034170;28;20018;-27
2023/08/03 04:37:54;;;;;;;9.33;3.17;;;;;;;;;;5033580;28;20268;-27
2023/08/03 04:40:19;;;;;;;11.97;3.10;;;;;;;;;;5033548;28;20767;-27
2023/08/03 04:42:44;;;;;;;11.40;2.70;;;;;;;;;;5034141;28;20256;-27
2023/08/03 04:45:09;;;;;;;8.57;2.33;;;;;;;;;;5033221;28;20303;-27
2023/08/03 04:47:34;;;;;;;9.48;2.13;;;;;;;;;;5033453;28;20588;-27
2023/08/03 04:50:00;;;;;;;8.60;2.17;;;;;;;;;;5033952;28;20076;-27
2023/08/03 04:52:25;;;;;;;10.43;2.53;;;;;;;;;;5034010;28;20256;-27
2023/08/03 04:54:50;;;;;;;9.43;2.30;;;;;;;;;;5033913;28;20025;-27
2023/08/03 04:57:15;;;;;;;15.93;2.50;;;;;;;;;;5033576;28;20326;-27
2023/08/03 04:59:41;;;;;;;12.50;2.70;;;;;;;;;;5033383;28;20018;-28
2023/08/03 05:02:06;;;;;;;7.53;2.15;;;;;;;;;;5033915;28;20108;-27
2023/08/03 05:04:31;;;;;;;12.43;1.97;;;;;;;;;;5033264;28;20017;-27
2023/08/03 05:06:56;;;;;;;9.20;1.90;;;;;;;;;;5032471;28;20785;-27
2023/08/03 05:09:22;;;;;;;14.85;2.30;;;;;;;;;;5032237;28;20256;-26
2023/08/03 05:11:47;;;;;;;10.40;2.28;;;;;;;;;;5032969;28;20456;-26
2023/08/03 05:14:12;;;;;;;10.80;2.20;;;;;;;;;;5033741;28;20098;-27
2023/08/03 05:16:37;;;;;;;11.63;2.03;;;;;;;;;;5033226;28;20021;-27
2023/08/03 05:19:02;;;;;;;16.33;2.67;;;;;;;;;;5032351;28;20154;-27
2023/08/03 05:21:28;;;;;;;17.60;2.47;;;;;;;;;;5031058;28;20792;-27
2023/08/03 05:23:53;;;;;;;19.30;2.73;;;;;;;;;;5032556;28;20343;-27
2023/08/03 05:26:18;;;;;;;28.03;3.87;;;;;;;;;;5034973;28;20427;-27
2023/08/03 05:28:43;;;;;;;19.38;3.42;;;;;;;;;;5034962;28;20268;-27
2023/08/03 05:31:08;;;;;;;42.58;3.10;;;;;;;;;;5034896;28;20071;-27
2023/08/03 05:33:34;;;;;;;18.53;2.90;;;;;;;;;;5034994;28;20009;-27
2023/08/03 05:36:00;;;;;;;16.15;2.85;;;;;;;;;;5036929;28;20198;-27
2023/08/03 05:38:25;;;;;;;16.10;3.10;;;;;;;;;;5036866;28;20431;-27
2023/08/03 05:40:50;;;;;;;21.85;3.10;;;;;;;;;;5036781;28;20518;-27
2023/08/03 05:43:15;;;;;;;18.30;2.80;;;;;;;;;;5037020;28;20372;-27
2023/08/03 05:45:42;;;;;;;21.23;3.47;;;;;;;;;;5036603;28;20778;-27
2023/08/03 05:48:12;;;;;;;25.90;3.22;;;;;;;;;;5036972;28;20460;-27
2023/08/03 05:50:38;;;;;;;24.40;3.13;;;;;;;;;;5036941;28;20368;-27
2023/08/03 05:53:04;;;;;;;20.55;2.90;;;;;;;;;;5036648;28;20022;-27
2023/08/03 05:55:29;;;;;;;26.23;3.45;;;;;;;;;;5036514;28;20070;-27
2023/08/03 05:57:54;;;;;;;17.03;2.97;;;;;;;;;;5036557;28;20083;-27
2023/08/03 06:00:21;;;;;;;18.60;3.10;;;;;;;;;;5018776;28;20665;-27
2023/08/03 06:02:47;;;;;;;15.85;3.10;;;;;;;;;;5036435;28;20260;-28
2023/08/03 06:05:30;;;;;;;19.98;3.10;;;;;;;;;;5036603;28;20032;-27
2023/08/03 06:07:56;;;;;;;19.75;3.45;;;;;;;;;;5036300;28;20463;-27
2023/08/03 06:10:21;;;;;;;13.80;2.60;;;;;;;;;;5036235;28;20020;-27
2023/08/03 06:12:46;;;;;;;16.77;2.67;;;;;;;;;;5036802;28;20255;-27
2023/08/03 06:15:11;;;;;;;24.02;3.28;;;;;;;;;;5018686;28;20279;-27
2023/08/03 06:17:37;;;;;;;14.65;2.85;;;;;;;;;;5035811;28;20368;-27
2023/08/03 06:20:11;;;;;;;17.77;2.75;;;;;;;;;;5034510;28;20544;-27
2023/08/03 06:22:36;;;;;;;14.25;2.70;;;;;;;;;;5035797;28;20132;-27
2023/08/03 06:25:02;;;;;;;33.97;4.95;;;;;;;;;;5035954;28;20453;-27
2023/08/03 06:27:27;;;;;;;19.27;3.40;;;;;;;;;;5034826;28;20021;-27
2023/08/03 06:29:52;;;;;;;16.57;2.60;;;;;;;;;;5035878;28;20092;-27
2023/08/03 06:32:23;;;;;;;17.13;2.93;;;;;;;;;;5036126;28;20252;-27
2023/08/03 06:34:48;;;;;;;15.98;2.63;;;;;;;;;;5015291;28;20376;-27
2023/08/03 06:37:14;;;;;;;15.32;2.70;;;;;;;;;;5033421;28;20028;-27
2023/08/03 06:39:39;;;;;;;13.67;2.60;;;;;;;;;;5033579;28;20029;-27
2023/08/03 06:42:04;;;;;;;15.80;2.90;;;;;;;;;;5033556;28;20268;-27
2023/08/03 06:44:30;;;;;;;13.07;2.33;;;;;;;;;;5033432;28;20686;-27
2023/08/03 06:46:56;;;;;;;10.70;2.10;;;;;;;;;;5033713;28;20044;-27
2023/08/03 06:49:22;;;;;;;13.97;2.70;;;;;;;;;;5035171;28;20100;-27
2023/08/03 06:51:48;;;;;;;16.92;2.90;;;;;;;;;;5036056;28;20722;-27
2023/08/03 06:54:13;;;;;;;15.35;2.78;;;;;;;;;;5035753;28;20021;-27
2023/08/03 06:56:38;;;;;;;11.38;2.33;;;;;;;;;;5035688;28;20032;-27
2023/08/03 06:59:03;;;;;;;12.00;2.50;;;;;;;;;;5035417;28;20079;-27
2023/08/03 07:01:28;;;;;;;15.55;2.40;;;;;;;;;;5035538;28;20253;-27
2023/08/03 07:03:54;;;;;;;14.07;2.60;;;;;;;;;;5035190;28;20025;-27
2023/08/03 07:06:19;;;;;;;14.55;2.33;;;;;;;;;;5035256;28;20248;-27
2023/08/03 07:08:44;;;;;;;11.60;2.57;;;;;;;;;;5035278;28;20375;-28
2023/08/03 07:11:09;;;;;;;11.10;1.90;;;;;;;;;;5035658;28;20068;-27
2023/08/03 07:13:34;;;;;;;14.80;2.30;;;;;;;;;;5035895;28;20083;-27
2023/08/03 07:16:09;;;;;;;8.60;2.40;;;;;;;;;;5035081;28;20771;-27
2023/08/03 07:18:34;;;;;;;26.42;4.40;;;;;;;;;;5035208;28;20653;-27
2023/08/03 07:21:03;;;;;;;15.98;3.30;;;;;;;;;;5035066;28;20100;-27
2023/08/03 07:23:28;;;;;;;10.38;2.53;;;;;;;;;;5034784;28;20170;-27
2023/08/03 07:25:54;;;;;;;11.98;1.95;;;;;;;;;;5035180;28;20032;-28
2023/08/03 07:28:20;;;;;;;11.38;2.15;;;;;;;;;;5034582;28;20049;-28
2023/08/03 07:30:45;;;;;;;12.82;2.22;;;;;;;;;;5034896;28;20053;-28
2023/08/03 07:33:10;;;;;;;7.50;1.90;;;;;;;;;;5034633;28;20537;-27
2023/08/03 07:35:38;;;;;;;8.50;2.07;;;;;;;;;;5016335;28;20276;-28
2023/08/03 07:38:03;;;;;;;12.10;2.40;;;;;;;;;;5034680;28;20604;-28
2023/08/03 07:40:29;;;;;;;10.25;2.60;;;;;;;;;;5034996;28;20096;-27
2023/08/03 07:42:54;;;;;;;6.30;1.93;;;;;;;;;;5034402;28;20044;-28
2023/08/03 07:45:19;;;;;;;7.27;2.03;;;;;;;;;;5034107;28;20296;-28
2023/08/03 07:47:44;;;;;;;7.78;2.00;;;;;;;;;;5033247;28;20252;-28
2023/08/03 07:50:10;;;;;;;10.27;2.20;;;;;;;;;;5035038;28;20017;-28
2023/08/03 07:52:35;;;;;;;14.20;2.20;;;;;;;;;;5033604;28;20067;-28
2023/08/03 07:55:00;;;;;;;8.55;2.17;;;;;;;;;;5034309;28;20200;-28
2023/08/03 07:57:26;;;;;;;13.02;2.45;;;;;;;;;;5034041;28;20073;-28
2023/08/03 07:59:51;;;;;;;12.07;2.50;;;;;;;;;;5033995;28;20021;-28
2023/08/03 08:02:16;;;;;;;9.57;2.63;;;;;;;;;;5034321;28;20025;-28
2023/08/03 08:04:42;;;;;;;10.98;2.22;;;;;;;;;;5034450;28;20017;-28
2023/08/03 08:07:07;;;;;;;11.30;2.33;;;;;;;;;;5033917;28;20021;-27
2023/08/03 08:09:32;;;;;;;12.77;2.88;;;;;;;;;;5034174;28;20148;-28
2023/08/03 08:11:57;;;;;;;11.17;2.80;;;;;;;;;;5033753;28;20033;-28
2023/08/03 08:14:22;;;;;;;11.27;3.70;;;;;;;;;;5033841;28;20057;-28
2023/08/03 08:16:48;;;;;;;12.43;3.80;;;;;;;;;;5034137;28;20027;-28
2023/08/03 08:19:13;;;;;;;11.68;4.15;;;;;;;;;;5033764;28;20262;-28
2023/08/03 08:21:38;;;;;;;18.73;4.13;;;;;;;;;;5033700;28;20108;-29
2023/08/03 08:24:04;;;;;;;15.88;4.00;;;;;;;;;;5033556;28;20051;-28
2023/08/03 08:26:29;;;;;;;17.77;4.75;;;;;;;;;;5033544;28;20013;-28
2023/08/03 08:28:56;;;;;;;14.30;3.60;;;;;;;;;;5033668;28;20026;-27
2023/08/03 08:31:22;;;;;;;12.25;3.85;;;;;;;;;;5033496;28;20087;-28
2023/08/03 08:33:47;;;;;;;13.25;3.53;;;;;;;;;;5034083;28;20017;-29
2023/08/03 08:36:13;;;;;;;17.65;3.60;;;;;;;;;;5033425;28;20384;-28
2023/08/03 08:38:38;;;;;;;9.15;2.80;;;;;;;;;;5033747;28;20029;-28
2023/08/03 08:41:03;;;;;;;11.73;2.73;;;;;;;;;;5033427;28;20379;-28
2023/08/03 08:43:28;;;;;;;9.85;2.50;;;;;;;;;;5033401;28;20025;-28
2023/08/03 08:45:54;;;;;;;10.23;2.42;;;;;;;;;;5033135;28;20041;-28
2023/08/03 08:48:19;;;;;;;7.22;2.00;;;;;;;;;;5033344;28;20037;-27
2023/08/03 08:50:45;;;;;;;9.52;2.22;;;;;;;;;;5033541;28;20471;-28
2023/08/03 08:53:13;;;;;;;5.53;1.83;;;;;;;;;;5033552;28;20025;-28
2023/08/03 08:55:38;;;;;;;7.72;2.00;;;;;;;;;;5033529;28;20521;-28
2023/08/03 08:58:03;;;;;;;8.45;1.95;;;;;;;;;;5032831;28;20022;-28
2023/08/03 09:00:29;;;;;;;7.25;1.83;;;;;;;;;;5033712;28;20022;-29
2023/08/03 09:02:55;;;;;;;5.57;1.90;;;;;;;;;;5033292;28;20021;-27
2023/08/03 09:05:21;;;;;;;7.82;1.77;;;;;;;;;;5033357;28;20464;-28
2023/08/03 09:08:19;;;;;;;6.40;1.75;;;;;;;;;;5033153;28;20432;-27
2023/08/03 09:10:52;;;;;;;7.47;2.30;;;;;;;;;;5013714;28;20033;-27
2023/08/03 09:13:37;;;;;;;6.47;2.05;;;;;;;;;;5033374;28;20020;-27
2023/08/03 09:16:03;;;;;;;10.20;1.88;;;;;;;;;;5033122;28;20033;-27
2023/08/03 09:18:30;;;;;;;7.55;1.58;;;;;;;;;;5033607;28;20074;-27
2023/08/03 09:21:12;;;;;;;6.60;1.77;;;;;;;;;;5033235;28;20466;-27
2023/08/03 09:23:37;;;;;;;7.63;1.83;;;;;;;;;;5033553;28;20108;-27
2023/08/03 09:26:06;;;;;;;7.93;2.20;;;;;;;;;;5033442;28;20121;-27
2023/08/03 09:31:08;;;;;;;9.52;2.30;;;;;;;;;;5029750;28;20057;-75
2023/08/03 09:33:34;;;;;;;10.70;2.17;;;;;;;;;;5033368;28;20018;-75
2023/08/03 09:36:05;;;;;;;14.88;2.30;;;;;;;;;;5032036;28;20112;-75
2023/08/03 09:38:30;;;;;;;10.35;1.98;;;;;;;;;;5032791;28;20434;-75
2023/08/03 09:40:56;;;;;;;7.75;1.85;;;;;;;;;;5032826;28;20112;-75
2023/08/03 09:43:22;;;;;;;7.93;2.00;;;;;;;;;;5032835;28;20107;-76
2023/08/03 09:45:47;;;;;;;9.30;2.00;;;;;;;;;;5032704;28;20283;-75
2023/08/03 09:48:13;;;;;;;10.65;2.00;;;;;;;;;;5031927;28;20432;-75
2023/08/03 09:50:39;;;;;;;10.45;2.30;;;;;;;;;;5032369;28;20031;-75
2023/08/03 09:53:06;;;;;;;11.52;2.35;;;;;;;;;;5030940;28;20017;-75
2023/08/03 09:55:33;;;;;;;8.60;2.00;;;;;;;;;;5032288;28;20023;-75
2023/08/03 09:58:00;;;;;;;7.40;1.73;;;;;;;;;;5030917;28;20021;-75
2023/08/03 10:00:25;;;;;;;6.43;1.92;;;;;;;;;;5032375;28;20472;-73
2023/08/03 10:03:10;;;;;;;8.70;1.95;;;;;;;;;;5032182;28;20075;-76
2023/08/03 10:05:40;;;;;;;9.05;1.73;;;;;;;;;;5033581;28;20026;-75
2023/08/03 10:08:15;;;;;;;6.43;1.50;;;;;;;;;;5032777;28;20018;-75
2023/08/03 10:10:46;;;;;;;9.20;1.50;;;;;;;;;;5037406;28;20013;-76
2023/08/03 10:13:11;;;;;;;6.78;1.60;;;;;;;;;;5043983;28;20114;-76
2023/08/03 10:15:37;;;;;;;5.70;1.30;;;;;;;;;;5036213;28;20066;-76
2023/08/03 10:18:03;;;;;;;10.52;1.70;;;;;;;;;;5036398;28;20014;-76
2023/08/03 10:20:28;;;;;;;8.15;1.27;;;;;;;;;;5036029;28;20388;-75
2023/08/03 10:23:06;;;;;;;8.68;1.40;;;;;;;;;;5034684;28;20464;-76
2023/08/03 10:25:31;;;;;;;2.65;1.17;;;;;;;;;;5035959;28;20025;-75
2023/08/03 10:28:13;;;;;;;4.07;1.20;;;;;;;;;;5034592;28;20016;-74
2023/08/03 10:30:57;;;;;;;7.07;1.45;;;;;;;;;;5035669;28;20312;-74
2023/08/03 10:33:22;;;;;;;6.57;1.58;;;;;;;;;;5035679;28;20083;-75
2023/08/03 10:35:48;;;;;;;9.00;1.70;;;;;;;;;;5035898;28;20428;-74
2023/08/03 10:38:21;;;;;;;6.03;1.83;;;;;;;;;;5034318;28;20034;-75
2023/08/03 10:40:46;;;;;;;8.93;1.88;;;;;;;;;;5034255;28;20025;-74
2023/08/03 10:43:11;;;;;;;8.57;1.97;;;;;;;;;;5034128;28;20024;-74
2023/08/03 10:45:37;;;;;;;10.33;2.10;;;;;;;;;;5035477;28;20021;-74
2023/08/03 10:48:25;;;;;;;10.57;2.25;;;;;;;;;;5035447;28;20251;-75
2023/08/03 10:50:57;;;;;;;8.10;2.00;;;;;;;;;;5034011;28;20025;-74
2023/08/03 10:53:23;;;;;;;;;;;;;;;;;;5034518;28;20018;-74
2023/08/03 10:55:48;;;;;;;14.02;2.40;;;;;;;;;;5035217;28;19932;-74
2023/08/03 10:58:13;;;;;;;12.13;2.13;;;;;;;;;;5035245;28;20028;-74
2023/08/03 11:00:42;;;;;;;12.27;2.42;;;;;;;;;;5035226;28;20020;-74
2023/08/03 11:03:07;;;;;;;10.00;1.90;;;;;;;;;;5035242;28;20037;-73
2023/08/03 11:05:32;;;;;;;11.80;2.22;;;;;;;;;;5034931;28;20018;-73
2023/08/03 11:07:58;;;;;;;10.93;2.03;;;;;;;;;;5034637;28;20522;-74
2023/08/03 11:10:23;;;;;;;6.40;1.57;;;;;;;;;;5035126;28;20314;-73
2023/08/03 11:12:48;;;;;;;9.60;1.47;;;;;;;;;;5038993;28;20264;-73
2023/08/03 11:15:17;;;;;;;5.80;1.38;;;;;;;;;;5035098;28;20271;-74
2023/08/03 11:17:45;;;;;;;6.63;1.38;;;;;;;;;;5035165;28;20021;-73
2023/08/03 11:20:14;;;;;;;5.28;1.30;;;;;;;;;;5034850;28;20025;-74
2023/08/03 11:22:40;;;;;;;3.70;1.30;;;;;;;;;;5034570;28;20019;-73
2023/08/03 11:25:06;;;;;;;6.97;1.38;;;;;;;;;;5034626;28;20461;-73
2023/08/03 11:27:31;;;;;;;7.75;1.48;;;;;;;;;;5033848;28;20028;-73
2023/08/03 11:29:57;;;;;;;5.93;1.30;;;;;;;;;;5034833;28;20397;-74
2023/08/03 11:32:30;;;;;;;6.03;1.27;;;;;;;;;;5033638;28;20025;-74
2023/08/03 11:35:03;;;;;;;3.40;0.82;;;;;;;;;;5033259;28;20057;-74
2023/08/03 11:37:29;;;;;;;3.80;0.93;;;;;;;;;;5034324;28;20009;-73
2023/08/03 11:39:55;;;;;;;4.25;1.17;;;;;;;;;;5033320;28;20029;-73
2023/08/03 11:42:20;;;;;;;5.00;1.10;;;;;;;;;;5033177;28;20033;-73
2023/08/03 11:44:45;;;;;;;3.70;0.82;;;;;;;;;;5033566;28;20021;-74
2023/08/03 11:47:11;;;;;;;5.68;0.90;;;;;;;;;;5033473;28;20432;-74
2023/08/03 11:49:36;;;;;;;2.60;0.88;;;;;;;;;;5034345;28;20021;-74
2023/08/03 11:52:02;;;;;;;4.93;0.98;;;;;;;;;;5034346;28;20079;-75
2023/08/03 11:54:32;;;;;;;3.75;1.05;;;;;;;;;;5033440;28;20530;-74
2023/08/03 11:58:07;;;;;;;5.47;1.00;;;;;;;;;;5034434;28;20009;-75
2023/08/03 11:59:46;;;;;;;7.00;1.00;;;;;;;;;;5033926;28;20033;-75
2023/08/03 12:02:12;;;;;;;5.78;1.20;;;;;;;;;;5034089;28;20557;-74
2023/08/03 12:04:38;;;;;;;6.22;1.38;;;;;;;;;;5033983;28;20022;-74
2023/08/03 12:07:03;;;;;;;4.10;1.02;;;;;;;;;;5034210;28;20025;-75
2023/08/03 12:09:35;;;;;;;4.25;1.17;;;;;;;;;;5033896;28;20461;-74
2023/08/03 12:12:01;;;;;;;6.30;1.30;;;;;;;;;;5032864;28;20021;-74
2023/08/03 12:14:26;;;;;;;3.92;1.30;;;;;;;;;;5032583;28;20021;-75
2023/08/03 12:16:52;;;;;;;5.18;1.25;;;;;;;;;;5036398;28;20444;-75
2023/08/03 12:19:18;;;;;;;4.80;1.10;;;;;;;;;;5036316;28;20024;-75
2023/08/03 12:21:44;;;;;;;5.25;1.35;;;;;;;;;;5034216;28;20473;-74
2023/08/03 12:24:09;;;;;;;6.43;1.70;;;;;;;;;;5033602;28;20020;-75
2023/08/03 12:26:34;;;;;;;3.90;1.30;;;;;;;;;;5032272;28;20260;-75
2023/08/03 12:29:01;;;;;;;3.20;1.00;;;;;;;;;;5032289;28;20024;-74
2023/08/03 12:31:26;;;;;;;6.75;1.67;;;;;;;;;;5033551;28;20259;-75
2023/08/03 12:33:52;;;;;;;3.97;1.30;;;;;;;;;;5031640;28;20379;-75
2023/08/03 12:36:17;;;;;;;8.83;2.30;;;;;;;;;;5032266;28;20021;-75
2023/08/03 12:38:42;;;;;;;5.18;1.35;;;;;;;;;;5033545;28;20268;-74
2023/08/03 12:41:08;;;;;;;7.43;1.60;;;;;;;;;;5033456;28;20021;-75
2023/08/03 12:43:33;;;;;;;6.13;1.90;;;;;;;;;;5044644;28;20017;-74
2023/08/03 12:45:58;;;;;;;8.90;1.73;;;;;;;;;;5033561;28;20025;-75
2023/08/03 12:48:23;;;;;;;6.13;1.88;;;;;;;;;;5033449;28;20022;-75
2023/08/03 12:50:49;;;;;;;6.80;2.10;;;;;;;;;;5035524;28;20085;-74
2023/08/03 12:53:14;;;;;;;9.73;2.10;;;;;;;;;;5038447;28;20276;-75
2023/08/03 12:55:39;;;;;;;11.00;2.28;;;;;;;;;;5033785;28;20025;-75
2023/08/03 12:58:04;;;;;;;9.97;2.20;;;;;;;;;;5033546;28;20329;-75
2023/08/03 13:00:30;;;;;;;12.60;2.37;;;;;;;;;;5031992;28;20623;-75
2023/08/03 13:02:55;;;;;;;9.30;2.30;;;;;;;;;;5032200;28;20279;-75
2023/08/03 13:05:20;;;;;;;6.30;1.97;;;;;;;;;;5037677;28;20029;-75
2023/08/03 13:07:45;;;;;;;10.10;2.13;;;;;;;;;;5049875;28;20041;-74
2023/08/03 13:10:14;;;;;;;13.95;2.60;;;;;;;;;;5034640;28;20281;-73
2023/08/03 13:12:39;;;;;;;11.85;2.20;;;;;;;;;;5034140;28;20018;-73
2023/08/03 13:15:05;;;;;;;8.13;2.00;;;;;;;;;;5037679;28;20108;-75
2023/08/03 13:17:30;;;;;;;7.45;2.00;;;;;;;;;;5033936;28;20105;-75
2023/08/03 13:19:55;;;;;;;5.53;1.93;;;;;;;;;;5033933;28;20013;-72
2023/08/03 13:22:20;;;;;;;9.33;1.97;;;;;;;;;;5035244;28;20272;-73
2023/08/03 13:24:45;;;;;;;8.83;2.33;;;;;;;;;;5035704;28;20279;-73
2023/08/03 13:27:21;;;;;;;8.47;2.10;;;;;;;;;;5032769;28;20021;-73
2023/08/03 13:29:49;;;;;;;13.20;2.33;;;;;;;;;;5032878;28;20296;-73
2023/08/03 13:32:15;;;;;;;7.18;1.92;;;;;;;;;;5034825;28;20018;-74
2023/08/03 13:34:40;;;;;;;10.23;2.53;;;;;;;;;;5038978;28;20029;-74
2023/08/03 13:37:06;;;;;;;13.68;2.50;;;;;;;;;;5034627;28;20065;-74
2023/08/03 13:39:31;;;;;;;12.18;2.40;;;;;;;;;;5035317;28;20025;-74
2023/08/03 13:41:56;;;;;;;10.57;2.20;;;;;;;;;;5035837;28;20093;-74
2023/08/03 13:44:21;;;;;;;8.97;2.30;;;;;;;;;;5034981;28;20450;-74
2023/08/03 13:46:46;;;;;;;8.77;2.47;;;;;;;;;;5039423;28;20299;-74
2023/08/03 13:49:12;;;;;;;11.05;2.20;;;;;;;;;;5041861;28;20025;-74
2023/08/03 13:51:37;;;;;;;11.30;2.60;;;;;;;;;;5057200;28;20112;-74
2023/08/03 13:54:02;;;;;;;14.52;2.88;;;;;;;;;;5058719;28;20358;-74
2023/08/03 13:56:27;;;;;;;17.17;3.33;;;;;;;;;;5058447;28;20033;-73
2023/08/03 13:58:53;;;;;;;10.80;2.70;;;;;;;;;;5059357;28;20038;-73
2023/08/03 14:01:18;;;;;;;13.47;3.10;;;;;;;;;;5059218;28;20260;-74
2023/08/03 14:03:43;;;;;;;11.57;2.38;;;;;;;;;;5059618;28;20256;-75
2023/08/03 14:06:08;;;;;;;15.57;3.05;;;;;;;;;;5059205;28;20018;-74
2023/08/03 14:08:33;;;;;;;13.32;3.10;;;;;;;;;;5059620;28;20085;-73
2023/08/03 14:10:59;;;;;;;14.07;2.87;;;;;;;;;;5059309;28;20021;-72
2023/08/03 14:13:24;;;;;;;10.95;2.85;;;;;;;;;;5059940;28;20252;-73
2023/08/03 14:15:49;;;;;;;8.70;2.47;;;;;;;;;;5058867;28;20021;-72
2023/08/03 14:18:14;;;;;;;14.73;3.00;;;;;;;;;;5058360;28;20278;-73
2023/08/03 14:20:40;;;;;;;12.68;2.67;;;;;;;;;;5059390;28;20013;-73
2023/08/03 14:23:05;;;;;;;8.83;2.47;;;;;;;;;;5059856;28;20017;-72
2023/08/03 14:25:30;;;;;;;12.17;2.50;;;;;;;;;;5058130;28;20304;-73
2023/08/03 14:27:56;;;;;;;11.10;2.67;;;;;;;;;;5058043;28;20010;-73
2023/08/03 14:30:21;;;;;;;7.53;2.03;;;;;;;;;;5056999;28;20314;-73
2023/08/03 14:32:47;;;;;;;7.83;2.20;;;;;;;;;;5057631;28;20020;-72